createdAt,value
2022-09-25T00:00:27.649Z,19.00
2022-09-25T00:02:59.014Z,21.90
2022-09-25T00:05:31.044Z,17.70
2022-09-25T00:08:22.819Z,17.50
2022-09-25T00:10:54.163Z,19.90
2022-09-25T00:13:26.158Z,22.60
2022-09-25T00:15:59.039Z,18.10
2022-09-25T00:18:50.939Z,18.70
2022-09-25T00:21:22.264Z,15.60
2022-09-25T00:23:56.520Z,18.70
2022-09-25T00:26:29.933Z,18.60
2022-09-25T00:29:19.088Z,21.50
2022-09-25T00:32:15.302Z,23.20
2022-09-25T00:34:57.478Z,18.40
2022-09-25T00:37:29.877Z,19.50
2022-09-25T00:40:03.515Z,16.10
2022-09-25T00:42:36.513Z,17.90
2022-09-25T00:45:09.252Z,20.30
2022-09-25T00:47:56.718Z,16.60
2022-09-25T00:50:37.431Z,19.00
2022-09-25T00:53:13.824Z,18.70
2022-09-25T00:55:47.644Z,24.60
2022-09-25T00:58:27.021Z,21.50
2022-09-25T01:00:58.280Z,21.80
2022-09-25T01:03:29.598Z,16.30
2022-09-25T01:06:02.244Z,15.20
2022-09-25T01:08:38.260Z,17.90
2022-09-25T01:11:09.980Z,18.30
2022-09-25T01:13:41.460Z,14.30
2022-09-25T01:16:21.917Z,16.10
2022-09-25T01:19:07.814Z,20.60
2022-09-25T01:21:51.594Z,19.40
2022-09-25T01:24:47.008Z,15.80
2022-09-25T01:27:53.630Z,18.60
2022-09-25T01:30:25.101Z,14.80
2022-09-25T01:33:04.497Z,19.20
2022-09-25T01:35:46.924Z,22.00
2022-09-25T01:38:26.993Z,16.00
2022-09-25T01:41:07.572Z,17.40
2022-09-25T01:43:43.213Z,16.90
2022-09-25T01:46:21.877Z,24.40
2022-09-25T01:49:00.416Z,20.10
2022-09-25T01:51:51.464Z,22.90
2022-09-25T01:54:36.377Z,19.40
2022-09-25T01:57:14.730Z,25.70
2022-09-25T01:59:50.791Z,25.70
2022-09-25T02:02:27.882Z,28.40
2022-09-25T02:05:06.081Z,23.30
2022-09-25T02:07:43.535Z,18.80
2022-09-25T02:10:19.200Z,19.40
2022-09-25T02:12:53.658Z,25.30
2022-09-25T02:15:31.222Z,30.10
2022-09-25T02:18:22.170Z,31.10
2022-09-25T02:21:10.335Z,20.70
2022-09-25T02:23:51.157Z,18.80
2022-09-25T02:26:27.829Z,20.50
2022-09-25T02:29:00.052Z,26.70
2022-09-25T02:31:36.817Z,32.40
2022-09-25T02:34:48.408Z,20.30
2022-09-25T02:37:20.586Z,20.80
2022-09-25T02:40:12.595Z,22.20
2022-09-25T02:42:50.936Z,20.90
2022-09-25T02:45:37.345Z,18.30
2022-09-25T02:51:11.172Z,20.20
2022-09-25T02:54:09.838Z,21.00
2022-09-25T02:57:20.847Z,22.10
2022-09-25T02:59:56.253Z,23.70
2022-09-25T03:03:02.595Z,26.20
2022-09-25T03:05:57.069Z,30.20
2022-09-25T03:08:39.689Z,26.60
2022-09-25T03:11:14.874Z,24.10
2022-09-25T03:13:46.963Z,19.40
2022-09-25T03:16:28.295Z,17.40
2022-09-25T03:19:10.593Z,19.00
2022-09-25T03:22:01.952Z,20.40
2022-09-25T03:24:33.451Z,20.20
2022-09-25T03:27:04.563Z,20.30
2022-09-25T03:29:56.439Z,23.10
2022-09-25T03:32:49.214Z,29.50
2022-09-25T03:35:20.231Z,23.10
2022-09-25T03:38:12.608Z,29.30
2022-09-25T03:40:43.988Z,29.30
2022-09-25T03:43:49.374Z,23.50
2022-09-25T03:46:40.886Z,30.40
2022-09-25T03:49:15.118Z,35.50
2022-09-25T03:51:46.108Z,41.00
2022-09-25T03:54:17.272Z,33.20
2022-09-25T03:57:08.540Z,30.60
2022-09-25T03:59:50.845Z,31.70
2022-09-25T04:02:22.006Z,30.10
2022-09-25T04:04:55.166Z,26.40
2022-09-25T04:07:27.227Z,23.50
2022-09-25T04:09:58.360Z,22.30
2022-09-25T04:12:29.733Z,30.30
2022-09-25T04:15:04.033Z,25.10
2022-09-25T04:17:35.792Z,27.20
2022-09-25T04:20:07.621Z,25.40
2022-09-25T04:22:38.511Z,27.60
2022-09-25T04:25:10.727Z,26.90
2022-09-25T04:27:41.700Z,27.30
2022-09-25T04:30:14.338Z,25.90
2022-09-25T04:33:03.077Z,28.70
2022-09-25T04:35:34.037Z,27.20
2022-09-25T04:38:05.382Z,24.00
2022-09-25T04:40:37.005Z,28.40
2022-09-25T04:43:08.958Z,30.10
2022-09-25T04:45:40.039Z,24.50
2022-09-25T04:48:11.188Z,28.60
2022-09-25T04:50:48.429Z,31.40
2022-09-25T04:53:19.697Z,26.90
2022-09-25T04:55:51.905Z,28.50
2022-09-25T04:58:23.439Z,29.30
2022-09-25T05:00:55.104Z,27.30
2022-09-25T05:03:26.635Z,28.50
2022-09-25T05:05:57.724Z,26.70
2022-09-25T05:08:28.857Z,34.40
2022-09-25T05:10:59.737Z,29.00
2022-09-25T05:13:30.642Z,31.30
2022-09-25T05:16:01.732Z,32.80
2022-09-25T05:18:32.793Z,30.80
2022-09-25T05:21:06.424Z,31.20
2022-09-25T05:23:37.357Z,27.50
2022-09-25T05:26:09.355Z,26.00
2022-09-25T05:28:40.232Z,31.00
2022-09-25T05:31:11.697Z,31.40
2022-09-25T05:33:43.528Z,31.30
2022-09-25T05:36:14.697Z,27.50
2022-09-25T05:38:45.649Z,41.60
2022-09-25T05:41:16.607Z,28.50
2022-09-25T05:43:48.440Z,31.00
2022-09-25T05:46:19.427Z,31.40
2022-09-25T05:48:50.382Z,38.10
2022-09-25T05:51:21.285Z,33.00
2022-09-25T05:53:54.165Z,29.50
2022-09-25T05:56:25.690Z,28.60
2022-09-25T05:58:58.832Z,30.30
2022-09-25T06:01:29.746Z,29.50
2022-09-25T06:04:00.699Z,27.60
2022-09-25T06:06:33.066Z,26.90
2022-09-25T06:09:04.267Z,21.60
2022-09-25T06:11:35.226Z,23.50
2022-09-25T06:14:06.272Z,23.00
2022-09-25T06:16:38.682Z,20.70
2022-09-25T06:19:09.629Z,23.20
2022-09-25T06:21:40.569Z,23.60
2022-09-25T06:24:12.005Z,17.70
2022-09-25T06:26:43.100Z,21.90
2022-09-25T06:29:14.036Z,23.10
2022-09-25T06:31:45.028Z,17.90
2022-09-25T06:34:15.969Z,21.60
2022-09-25T06:36:46.850Z,19.00
2022-09-25T06:39:17.861Z,22.10
2022-09-25T06:41:48.827Z,19.20
2022-09-25T06:44:24.808Z,20.80
2022-09-25T06:46:58.084Z,20.50
2022-09-25T06:49:29.006Z,20.30
2022-09-25T06:52:00.135Z,18.60
2022-09-25T06:54:34.159Z,25.50
2022-09-25T06:57:05.008Z,21.00
2022-09-25T06:59:36.137Z,17.70
2022-09-25T07:02:20.975Z,18.70
2022-09-25T07:07:23.008Z,16.60
2022-09-25T07:09:53.866Z,23.00
2022-09-25T07:12:24.860Z,18.30
2022-09-25T07:14:56.450Z,16.30
2022-09-25T07:17:27.399Z,17.00
2022-09-25T07:19:58.413Z,17.80
2022-09-25T07:22:30.300Z,18.10
2022-09-25T07:25:03.202Z,13.90
2022-09-25T07:27:34.159Z,15.60
2022-09-25T07:30:07.985Z,19.80
2022-09-25T07:32:46.738Z,19.00
2022-09-25T07:35:18.736Z,18.80
2022-09-25T07:37:49.685Z,21.10
2022-09-25T07:40:20.941Z,21.60
2022-09-25T07:42:54.652Z,17.30
2022-09-25T07:45:25.780Z,20.80
2022-09-25T07:48:01.935Z,19.80
2022-09-25T07:50:34.075Z,19.40
2022-09-25T07:53:05.350Z,16.70
2022-09-25T07:55:36.497Z,15.90
2022-09-25T07:58:08.706Z,17.10
2022-09-25T08:00:40.229Z,20.30
2022-09-25T08:03:13.895Z,19.60
2022-09-25T08:05:47.604Z,17.90
2022-09-25T08:08:18.701Z,22.10
2022-09-25T08:10:50.218Z,16.40
2022-09-25T08:13:21.464Z,18.80
2022-09-25T08:15:52.599Z,19.50
2022-09-25T08:18:26.161Z,15.30
2022-09-25T08:21:01.556Z,14.10
2022-09-25T08:23:32.920Z,15.30
2022-09-25T08:26:05.172Z,21.20
2022-09-25T08:28:38.587Z,12.20
2022-09-25T08:31:09.788Z,14.50
2022-09-25T08:33:45.962Z,11.30
2022-09-25T08:36:17.855Z,11.00
2022-09-25T08:38:53.107Z,15.40
2022-09-25T08:41:29.286Z,12.90
2022-09-25T08:44:07.133Z,14.90
2022-09-25T08:47:04.881Z,10.80
2022-09-25T08:49:40.233Z,14.50
2022-09-25T08:52:16.420Z,15.30
2022-09-25T08:54:47.518Z,14.00
2022-09-25T08:57:30.788Z,13.40
2022-09-25T09:00:11.602Z,14.90
2022-09-25T09:02:46.912Z,13.90
2022-09-25T09:05:21.979Z,9.90
2022-09-25T09:07:59.597Z,13.70
2022-09-25T09:10:41.396Z,11.10
2022-09-25T09:13:21.691Z,12.30
2022-09-25T09:16:01.032Z,11.20
2022-09-25T09:18:37.445Z,20.50
2022-09-25T09:21:17.542Z,15.80
2022-09-25T09:24:07.478Z,11.10
2022-09-25T09:26:50.210Z,11.80
2022-09-25T09:29:35.459Z,11.20
2022-09-25T09:35:06.669Z,11.70
2022-09-25T09:37:57.890Z,11.40
2022-09-25T09:40:54.693Z,10.90
2022-09-25T09:43:40.016Z,10.30
2022-09-25T09:46:22.758Z,10.70
2022-09-25T09:49:05.482Z,13.10
2022-09-25T09:51:41.423Z,9.80
2022-09-25T09:54:17.325Z,10.60
2022-09-25T09:56:53.081Z,10.80
2022-09-25T09:59:27.770Z,11.20
2022-09-25T10:02:09.309Z,12.30
2022-09-25T10:04:42.624Z,12.10
2022-09-25T10:07:22.730Z,12.80
2022-09-25T10:09:54.426Z,11.00
2022-09-25T10:12:31.262Z,8.20
2022-09-25T10:15:08.982Z,10.50
2022-09-25T10:17:41.027Z,9.70
2022-09-25T10:20:21.433Z,11.20
2022-09-25T10:22:56.800Z,11.10
2022-09-25T10:25:40.223Z,9.00
2022-09-25T10:28:29.210Z,8.70
2022-09-25T10:31:02.007Z,10.20
2022-09-25T10:33:34.787Z,10.50
2022-09-25T10:36:06.201Z,12.00
2022-09-25T10:38:48.313Z,7.50
2022-09-25T10:41:22.286Z,7.80
2022-09-25T10:43:56.163Z,9.40
2022-09-25T10:46:50.146Z,8.30
2022-09-25T10:49:43.919Z,7.60
2022-09-25T10:52:18.707Z,6.60
2022-09-25T10:54:52.520Z,9.20
2022-09-25T10:57:34.643Z,8.60
2022-09-25T11:00:20.391Z,10.30
2022-09-25T11:02:56.565Z,8.10
2022-09-25T11:05:31.934Z,9.10
2022-09-25T11:08:06.431Z,8.20
2022-09-25T11:10:48.434Z,8.30
2022-09-25T11:13:26.249Z,5.30
2022-09-25T11:16:09.626Z,7.50
2022-09-25T11:18:45.253Z,6.70
2022-09-25T11:21:29.568Z,7.80
2022-09-25T11:24:16.202Z,8.10
2022-09-25T11:26:53.320Z,7.50
2022-09-25T11:29:35.093Z,8.70
2022-09-25T11:32:13.981Z,8.20
2022-09-25T11:35:01.389Z,8.40
2022-09-25T11:37:41.240Z,6.70
2022-09-25T11:40:48.777Z,7.50
2022-09-25T11:43:31.425Z,6.90
2022-09-25T11:46:07.718Z,7.50
2022-09-25T11:48:50.971Z,7.60
2022-09-25T11:51:36.162Z,7.50
2022-09-25T11:54:33.299Z,7.40
2022-09-25T11:57:11.731Z,8.80
2022-09-25T11:59:57.293Z,7.90
2022-09-25T12:02:50.643Z,8.90
2022-09-25T12:05:48.165Z,7.70
2022-09-25T12:08:44.326Z,7.70
2022-09-25T12:11:25.746Z,7.80
2022-09-25T12:14:03.936Z,9.30
2022-09-25T12:16:41.957Z,7.60
2022-09-25T12:19:36.164Z,10.00
2022-09-25T12:22:16.762Z,8.70
2022-09-25T12:25:01.796Z,7.20
2022-09-25T12:27:45.222Z,9.90
2022-09-25T12:30:24.079Z,11.60
2022-09-25T12:33:10.329Z,8.10
2022-09-25T12:35:47.936Z,7.60
2022-09-25T12:38:29.168Z,7.50
2022-09-25T12:41:07.372Z,7.50
2022-09-25T12:43:45.518Z,8.90
2022-09-25T12:46:23.620Z,9.10
2022-09-25T12:49:02.061Z,10.10
2022-09-25T12:51:40.575Z,9.50
2022-09-25T12:54:23.987Z,11.00
2022-09-25T12:57:02.125Z,8.40
2022-09-25T12:59:46.068Z,8.40
2022-09-25T13:02:28.173Z,21.60
2022-09-25T13:05:09.452Z,10.50
2022-09-25T13:07:47.042Z,10.10
2022-09-25T13:10:30.986Z,8.50
2022-09-25T13:13:10.704Z,14.20
2022-09-25T13:15:45.181Z,7.60
2022-09-25T13:18:20.106Z,9.50
2022-09-25T13:20:55.991Z,9.60
2022-09-25T13:23:33.587Z,9.10
2022-09-25T13:26:13.384Z,9.00
2022-09-25T13:28:53.885Z,6.50
2022-09-25T13:31:27.903Z,6.90
2022-09-25T13:34:08.134Z,8.70
2022-09-25T13:36:46.461Z,9.30
2022-09-25T13:39:46.269Z,10.30
2022-09-25T13:42:24.845Z,8.40
2022-09-25T13:45:30.457Z,6.90
2022-09-25T13:48:09.992Z,6.50
2022-09-25T13:50:43.735Z,6.50
2022-09-25T13:53:23.793Z,8.70
2022-09-25T13:56:27.248Z,7.00
2022-09-25T13:59:35.986Z,9.10
2022-09-25T14:02:43.423Z,6.90
2022-09-25T14:05:19.557Z,6.70
2022-09-25T14:07:55.808Z,10.30
2022-09-25T14:10:27.438Z,8.70
2022-09-25T14:13:01.022Z,9.00
2022-09-25T14:15:36.289Z,8.70
2022-09-25T14:18:10.836Z,8.60
2022-09-25T14:20:44.182Z,8.50
2022-09-25T14:23:23.650Z,6.90
2022-09-25T14:26:02.095Z,11.40
2022-09-25T14:28:34.558Z,8.70
2022-09-25T14:31:21.673Z,9.30
2022-09-25T14:34:17.289Z,10.50
2022-09-25T14:37:03.811Z,9.70
2022-09-25T14:39:44.460Z,10.70
2022-09-25T14:42:34.159Z,8.20
2022-09-25T14:45:22.611Z,10.70
2022-09-25T14:47:57.380Z,8.70
2022-09-25T14:50:31.429Z,9.00
2022-09-25T14:53:08.270Z,8.70
2022-09-25T14:55:46.446Z,7.90
2022-09-25T14:58:22.927Z,11.40
2022-09-25T15:00:56.946Z,10.10
2022-09-25T15:03:33.733Z,9.30
2022-09-25T15:06:04.566Z,11.10
2022-09-25T15:08:38.949Z,13.70
2022-09-25T15:11:15.448Z,8.30
2022-09-25T15:13:47.483Z,11.30
2022-09-25T15:16:40.169Z,9.20
2022-09-25T15:19:20.544Z,7.80
2022-09-25T15:21:52.381Z,10.30
2022-09-25T15:24:27.914Z,9.70
2022-09-25T15:27:03.907Z,8.00
2022-09-25T15:29:38.469Z,10.90
2022-09-25T15:32:17.398Z,14.00
2022-09-25T15:34:49.034Z,10.20
2022-09-25T15:37:28.199Z,11.60
2022-09-25T15:40:02.111Z,10.90
2022-09-25T15:42:33.090Z,12.20
2022-09-25T15:45:29.106Z,11.50
2022-09-25T15:48:00.790Z,12.50
2022-09-25T15:50:32.181Z,29.10
2022-09-25T15:53:03.628Z,15.60
2022-09-25T15:55:34.566Z,10.50
2022-09-25T15:58:13.793Z,11.90
2022-09-25T16:01:20.366Z,10.20
2022-09-25T16:04:12.602Z,11.20
2022-09-25T16:06:46.717Z,11.50
2022-09-25T16:09:30.474Z,12.90
2022-09-25T16:12:31.935Z,12.80
2022-09-25T16:15:30.031Z,9.50
2022-09-25T16:18:05.955Z,15.30
2022-09-25T16:20:40.680Z,12.30
2022-09-25T16:23:29.084Z,12.20
2022-09-25T16:26:00.628Z,12.80
2022-09-25T16:28:35.389Z,14.40
2022-09-25T16:31:09.125Z,14.10
2022-09-25T16:33:42.458Z,12.10
2022-09-25T16:36:18.359Z,15.70
2022-09-25T16:39:12.658Z,13.70
2022-09-25T16:41:48.595Z,11.70
2022-09-25T16:44:21.598Z,13.30
2022-09-25T16:47:22.428Z,12.10
2022-09-25T16:49:53.380Z,15.50
2022-09-25T16:52:27.895Z,13.50
2022-09-25T16:55:00.856Z,15.90
2022-09-25T16:57:35.656Z,14.30
2022-09-25T17:00:07.886Z,12.20
2022-09-25T17:02:43.253Z,12.50
2022-09-25T17:05:19.446Z,14.80
2022-09-25T17:07:52.913Z,17.60
2022-09-25T17:10:26.460Z,13.10
2022-09-25T17:13:04.193Z,14.50
2022-09-25T17:15:40.976Z,14.90
2022-09-25T17:18:22.280Z,21.10
2022-09-25T17:20:56.139Z,11.90
2022-09-25T17:23:28.401Z,13.20
2022-09-25T17:26:03.864Z,18.70
2022-09-25T17:28:38.006Z,23.00
2022-09-25T17:31:10.586Z,14.00
2022-09-25T17:33:42.716Z,12.60
2022-09-25T17:36:16.474Z,13.10
2022-09-25T17:38:48.273Z,13.80
2022-09-25T17:41:27.282Z,17.60
2022-09-25T17:44:00.842Z,13.40
2022-09-25T17:46:36.487Z,20.20
2022-09-25T17:49:08.110Z,17.90
2022-09-25T17:51:41.118Z,18.90
2022-09-25T17:54:13.784Z,17.10
2022-09-25T17:56:46.508Z,21.10
2022-09-25T17:59:17.869Z,13.60
2022-09-25T18:01:49.056Z,19.60
2022-09-25T18:04:25.651Z,19.00
2022-09-25T18:07:00.077Z,18.10
2022-09-25T18:09:31.420Z,16.00
2022-09-25T18:12:04.234Z,17.90
2022-09-25T18:14:35.527Z,17.60
2022-09-25T18:17:06.445Z,15.40
2022-09-25T18:19:55.260Z,15.30
2022-09-25T18:22:29.612Z,19.00
2022-09-25T18:25:00.993Z,18.80
2022-09-25T18:27:35.425Z,17.50
2022-09-25T18:30:12.130Z,19.50
2022-09-25T18:32:44.494Z,17.70
2022-09-25T18:35:16.645Z,20.20
2022-09-25T18:37:48.706Z,14.20
2022-09-25T18:40:21.522Z,22.80
2022-09-25T18:42:53.682Z,21.40
2022-09-25T18:45:25.439Z,17.50
2022-09-25T18:48:00.176Z,18.80
2022-09-25T18:50:32.534Z,19.30
2022-09-25T18:53:03.833Z,18.00
2022-09-25T18:55:35.120Z,15.50
2022-09-25T18:58:08.347Z,16.90
2022-09-25T19:00:40.276Z,17.40
2022-09-25T19:03:11.950Z,18.40
2022-09-25T19:05:44.046Z,14.90
2022-09-25T19:08:15.296Z,19.50
2022-09-25T19:10:46.517Z,16.20
2022-09-25T19:13:18.019Z,16.80
2022-09-25T19:15:49.950Z,16.30
2022-09-25T19:18:21.700Z,19.30
2022-09-25T19:20:54.740Z,16.60
2022-09-25T19:23:27.497Z,14.40
2022-09-25T19:26:05.182Z,18.10
2022-09-25T19:28:37.295Z,15.80
2022-09-25T19:31:13.569Z,27.30
2022-09-25T19:33:45.570Z,21.10
2022-09-25T19:36:19.505Z,20.00
2022-09-25T19:38:51.313Z,18.00
2022-09-25T19:41:24.992Z,15.70
2022-09-25T19:43:59.228Z,20.40
2022-09-25T19:46:32.189Z,16.10
2022-09-25T19:49:03.825Z,14.70
2022-09-25T19:51:35.013Z,17.30
2022-09-25T19:54:07.658Z,19.40
2022-09-25T19:56:42.306Z,18.10
2022-09-25T19:59:15.902Z,18.70
2022-09-25T20:01:47.850Z,23.50
2022-09-25T20:04:19.503Z,14.60
2022-09-25T20:06:51.296Z,19.70
2022-09-25T20:09:22.860Z,19.30
2022-09-25T20:11:54.329Z,18.60
2022-09-25T20:14:26.441Z,21.00
2022-09-25T20:16:59.455Z,17.10
2022-09-25T20:19:31.710Z,16.70
2022-09-25T20:22:03.020Z,18.10
2022-09-25T20:24:35.867Z,21.50
2022-09-25T20:27:09.522Z,18.60
2022-09-25T20:29:40.749Z,22.70
2022-09-25T20:32:12.110Z,17.60
2022-09-25T20:34:43.252Z,20.00
2022-09-25T20:37:23.742Z,20.50
2022-09-25T20:39:55.960Z,22.30
2022-09-25T20:42:27.150Z,30.10
2022-09-25T20:44:58.211Z,20.20
2022-09-25T20:47:33.736Z,24.30
2022-09-25T20:50:05.842Z,38.60
2022-09-25T20:52:37.579Z,29.70
2022-09-25T20:55:10.741Z,25.00
2022-09-25T20:57:41.677Z,26.70
2022-09-25T21:00:19.085Z,25.40
2022-09-25T21:02:50.688Z,19.90
2022-09-25T21:05:21.963Z,25.70
2022-09-25T21:07:53.203Z,24.10
2022-09-25T21:10:24.331Z,23.80
2022-09-25T21:12:55.243Z,30.80
2022-09-25T21:15:27.932Z,26.70
2022-09-25T21:17:59.127Z,28.00
2022-09-25T21:20:30.066Z,29.10
2022-09-25T21:23:01.009Z,30.30
2022-09-25T21:25:31.917Z,30.10
2022-09-25T21:28:03.072Z,34.30
2022-09-25T21:30:34.228Z,32.10
2022-09-25T21:33:05.141Z,28.30
2022-09-25T21:35:36.105Z,27.70
2022-09-25T21:38:07.211Z,33.00
2022-09-25T21:40:38.274Z,26.10
2022-09-25T21:43:09.198Z,28.50
2022-09-25T21:45:40.323Z,28.20
2022-09-25T21:48:12.419Z,29.40
2022-09-25T21:50:54.717Z,30.70
2022-09-25T21:53:26.488Z,32.00
2022-09-25T21:56:04.641Z,27.00
2022-09-25T21:58:37.028Z,29.90
2022-09-25T22:01:11.135Z,28.80
2022-09-25T22:03:44.911Z,28.70
2022-09-25T22:06:20.101Z,28.30
2022-09-25T22:11:22.474Z,28.80
2022-09-25T22:13:54.627Z,26.40
2022-09-25T22:16:27.481Z,29.20
2022-09-25T22:19:02.019Z,33.30
2022-09-25T22:21:34.466Z,27.80
2022-09-25T22:24:06.902Z,29.50
2022-09-25T22:26:40.607Z,34.30
2022-09-25T22:29:12.629Z,29.80
2022-09-25T22:31:44.340Z,28.20
2022-09-25T22:34:21.679Z,32.80
2022-09-25T22:36:59.178Z,33.40
2022-09-25T22:39:31.435Z,29.70
2022-09-25T22:42:02.407Z,31.10
2022-09-25T22:44:33.279Z,34.50
2022-09-25T22:47:04.260Z,27.40
2022-09-25T22:49:35.102Z,27.80
2022-09-25T22:52:06.452Z,26.30
2022-09-25T22:54:37.346Z,26.80
2022-09-25T22:57:08.241Z,33.40
2022-09-25T22:59:39.147Z,33.20
2022-09-25T23:02:12.397Z,33.70
2022-09-25T23:04:45.062Z,23.20
2022-09-25T23:07:16.429Z,25.80
2022-09-25T23:09:47.329Z,31.50
2022-09-25T23:12:18.163Z,28.60
2022-09-25T23:14:49.017Z,26.20
2022-09-25T23:17:19.941Z,22.80
2022-09-25T23:19:50.802Z,27.90
2022-09-25T23:22:21.645Z,24.90
2022-09-25T23:24:52.552Z,27.90
2022-09-25T23:27:23.411Z,27.40
2022-09-25T23:29:54.248Z,25.20
2022-09-25T23:32:25.155Z,26.90
2022-09-25T23:34:56.033Z,30.30
2022-09-25T23:37:27.412Z,23.90
2022-09-25T23:39:58.227Z,22.60
2022-09-25T23:42:29.512Z,23.80
2022-09-25T23:45:00.330Z,27.90
2022-09-25T23:47:31.226Z,27.10
2022-09-25T23:50:04.635Z,27.70
2022-09-25T23:52:35.932Z,27.20
2022-09-25T23:55:07.508Z,23.30
2022-09-25T23:57:39.255Z,28.40
